sensor_id;sensor_type;location;lat;lon;timestamp;pressure;altitude;pressure_sealevel;temperature;humidity
62436;BME280;48480;50.252;18.848;2023-04-07T00:00:54;98664.68;;;2.74;76.47
62436;BME280;48480;50.252;18.848;2023-04-07T00:03:19;98666.27;;;2.73;76.73
62436;BME280;48480;50.252;18.848;2023-04-07T00:05:46;98666.73;;;2.69;76.42
62436;BME280;48480;50.252;18.848;2023-04-07T00:08:12;98657.13;;;2.67;76.60
62436;BME280;48480;50.252;18.848;2023-04-07T00:10:37;98656.63;;;2.61;76.51
62436;BME280;48480;50.252;18.848;2023-04-07T00:13:03;98655.92;;;2.57;76.64
62436;BME280;48480;50.252;18.848;2023-04-07T00:15:29;98657.40;;;2.56;76.94
62436;BME280;48480;50.252;18.848;2023-04-07T00:17:54;98655.83;;;2.58;76.98
62436;BME280;48480;50.252;18.848;2023-04-07T00:20:20;98653.19;;;2.60;76.97
62436;BME280;48480;50.252;18.848;2023-04-07T00:22:46;98647.02;;;2.59;76.93
62436;BME280;48480;50.252;18.848;2023-04-07T00:25:12;98644.11;;;2.57;76.92
62436;BME280;48480;50.252;18.848;2023-04-07T00:27:37;98641.39;;;2.54;77.11
62436;BME280;48480;50.252;18.848;2023-04-07T00:30:03;98641.09;;;2.56;77.34
62436;BME280;48480;50.252;18.848;2023-04-07T00:32:29;98638.13;;;2.59;77.35
62436;BME280;48480;50.252;18.848;2023-04-07T00:34:55;98634.54;;;2.62;77.31
62436;BME280;48480;50.252;18.848;2023-04-07T00:37:21;98634.15;;;2.67;77.33
62436;BME280;48480;50.252;18.848;2023-04-07T00:39:46;98617.05;;;2.59;77.01
62436;BME280;48480;50.252;18.848;2023-04-07T00:42:12;98625.09;;;2.70;77.17
62436;BME280;48480;50.252;18.848;2023-04-07T00:44:37;98625.21;;;2.74;77.12
62436;BME280;48480;50.252;18.848;2023-04-07T00:47:03;98621.61;;;2.75;76.98
62436;BME280;48480;50.252;18.848;2023-04-07T00:49:29;98623.59;;;2.78;77.06
62436;BME280;48480;50.252;18.848;2023-04-07T00:51:57;98618.34;;;2.77;76.92
62436;BME280;48480;50.252;18.848;2023-04-07T00:54:23;98612.50;;;2.76;76.73
62436;BME280;48480;50.252;18.848;2023-04-07T00:56:50;98609.75;;;2.73;76.84
62436;BME280;48480;50.252;18.848;2023-04-07T00:59:16;98610.48;;;2.71;77.07
62436;BME280;48480;50.252;18.848;2023-04-07T01:01:47;98602.36;;;2.70;76.98
62436;BME280;48480;50.252;18.848;2023-04-07T01:04:32;98605.19;;;2.73;76.87
62436;BME280;48480;50.252;18.848;2023-04-07T01:07:17;98604.13;;;2.73;76.90
62436;BME280;48480;50.252;18.848;2023-04-07T01:09:53;98605.09;;;2.75;76.97
62436;BME280;48480;50.252;18.848;2023-04-07T01:15:11;98602.55;;;2.77;76.98
62436;BME280;48480;50.252;18.848;2023-04-07T01:17:44;98602.91;;;2.74;76.71
62436;BME280;48480;50.252;18.848;2023-04-07T01:20:15;98596.48;;;2.68;76.96
62436;BME280;48480;50.252;18.848;2023-04-07T01:22:45;98588.37;;;2.65;77.14
62436;BME280;48480;50.252;18.848;2023-04-07T01:25:25;98593.10;;;2.71;77.09
62436;BME280;48480;50.252;18.848;2023-04-07T01:28:04;98590.93;;;2.71;76.95
62436;BME280;48480;50.252;18.848;2023-04-07T01:30:38;98591.51;;;2.71;77.16
62436;BME280;48480;50.252;18.848;2023-04-07T01:33:04;98589.27;;;2.69;77.00
62436;BME280;48480;50.252;18.848;2023-04-07T01:35:32;98593.89;;;2.70;76.91
62436;BME280;48480;50.252;18.848;2023-04-07T01:37:59;98591.70;;;2.67;77.13
62436;BME280;48480;50.252;18.848;2023-04-07T01:40:27;98592.13;;;2.65;77.15
62436;BME280;48480;50.252;18.848;2023-04-07T01:42:55;98593.34;;;2.64;77.26
62436;BME280;48480;50.252;18.848;2023-04-07T01:45:22;98592.71;;;2.65;77.57
62436;BME280;48480;50.252;18.848;2023-04-07T01:47:49;98592.60;;;2.67;77.57
62436;BME280;48480;50.252;18.848;2023-04-07T01:50:15;98590.02;;;2.69;77.44
62436;BME280;48480;50.252;18.848;2023-04-07T01:52:41;98595.27;;;2.69;77.20
62436;BME280;48480;50.252;18.848;2023-04-07T01:55:07;98590.91;;;2.65;77.02
62436;BME280;48480;50.252;18.848;2023-04-07T01:57:34;98591.07;;;2.64;77.19
62436;BME280;48480;50.252;18.848;2023-04-07T01:59:59;98590.11;;;2.64;77.39
62436;BME280;48480;50.252;18.848;2023-04-07T02:02:25;98570.48;;;2.53;77.26
62436;BME280;48480;50.252;18.848;2023-04-07T02:04:56;98585.25;;;2.64;77.37
62436;BME280;48480;50.252;18.848;2023-04-07T02:10:14;98579.00;;;2.67;77.44
62436;BME280;48480;50.252;18.848;2023-04-07T02:12:41;98581.48;;;2.65;77.43
62436;BME280;48480;50.252;18.848;2023-04-07T02:15:11;98583.86;;;2.65;77.38
62436;BME280;48480;50.252;18.848;2023-04-07T02:17:40;98577.82;;;2.64;77.46
62436;BME280;48480;50.252;18.848;2023-04-07T02:20:07;98569.60;;;2.64;77.44
62436;BME280;48480;50.252;18.848;2023-04-07T02:22:37;98573.64;;;2.65;77.22
62436;BME280;48480;50.252;18.848;2023-04-07T02:25:23;98576.55;;;2.64;77.36
62436;BME280;48480;50.252;18.848;2023-04-07T02:27:50;98580.98;;;2.64;77.41
62436;BME280;48480;50.252;18.848;2023-04-07T02:30:16;98586.72;;;2.64;77.44
62436;BME280;48480;50.252;18.848;2023-04-07T02:32:41;98584.70;;;2.65;77.30
62436;BME280;48480;50.252;18.848;2023-04-07T02:35:07;98584.91;;;2.63;77.32
62436;BME280;48480;50.252;18.848;2023-04-07T02:37:32;98582.32;;;2.65;77.41
62436;BME280;48480;50.252;18.848;2023-04-07T02:39:58;98581.11;;;2.65;77.27
62436;BME280;48480;50.252;18.848;2023-04-07T02:42:23;98587.48;;;2.66;77.51
62436;BME280;48480;50.252;18.848;2023-04-07T02:44:49;98586.73;;;2.66;77.56
62436;BME280;48480;50.252;18.848;2023-04-07T02:47:15;98587.79;;;2.67;77.72
62436;BME280;48480;50.252;18.848;2023-04-07T02:49:41;98571.98;;;2.61;77.69
62436;BME280;48480;50.252;18.848;2023-04-07T02:52:06;98583.72;;;2.69;77.67
62436;BME280;48480;50.252;18.848;2023-04-07T02:54:32;98586.64;;;2.71;77.66
62436;BME280;48480;50.252;18.848;2023-04-07T02:56:57;98582.40;;;2.73;77.64
62436;BME280;48480;50.252;18.848;2023-04-07T02:59:23;98581.59;;;2.69;77.38
62436;BME280;48480;50.252;18.848;2023-04-07T03:01:48;98576.18;;;2.66;77.58
62436;BME280;48480;50.252;18.848;2023-04-07T03:04:14;98565.61;;;2.58;77.51
62436;BME280;48480;50.252;18.848;2023-04-07T03:06:39;98573.77;;;2.60;77.63
62436;BME280;48480;50.252;18.848;2023-04-07T03:09:05;98573.56;;;2.59;77.71
62436;BME280;48480;50.252;18.848;2023-04-07T03:11:31;98567.77;;;2.55;77.78
62436;BME280;48480;50.252;18.848;2023-04-07T03:13:56;98567.84;;;2.54;77.97
62436;BME280;48480;50.252;18.848;2023-04-07T03:16:22;98566.02;;;2.54;78.21
62436;BME280;48480;50.252;18.848;2023-04-07T03:18:47;98564.33;;;2.58;78.17
62436;BME280;48480;50.252;18.848;2023-04-07T03:21:13;98571.71;;;2.58;77.98
62436;BME280;48480;50.252;18.848;2023-04-07T03:23:38;98567.10;;;2.57;78.21
62436;BME280;48480;50.252;18.848;2023-04-07T03:26:03;98562.07;;;2.59;78.22
62436;BME280;48480;50.252;18.848;2023-04-07T03:28:29;98561.22;;;2.59;78.39
62436;BME280;48480;50.252;18.848;2023-04-07T03:30:54;98562.17;;;2.56;78.36
62436;BME280;48480;50.252;18.848;2023-04-07T03:33:20;98570.06;;;2.56;78.55
62436;BME280;48480;50.252;18.848;2023-04-07T03:35:46;98570.55;;;2.58;78.59
62436;BME280;48480;50.252;18.848;2023-04-07T03:38:11;98561.70;;;2.58;78.60
62436;BME280;48480;50.252;18.848;2023-04-07T03:40:37;98562.71;;;2.59;78.36
62436;BME280;48480;50.252;18.848;2023-04-07T03:43:02;98556.77;;;2.56;78.31
62436;BME280;48480;50.252;18.848;2023-04-07T03:45:28;98554.12;;;2.57;78.45
62436;BME280;48480;50.252;18.848;2023-04-07T03:47:54;98553.44;;;2.59;78.59
62436;BME280;48480;50.252;18.848;2023-04-07T03:50:19;98552.71;;;2.61;78.47
62436;BME280;48480;50.252;18.848;2023-04-07T03:52:45;98551.95;;;2.58;78.37
62436;BME280;48480;50.252;18.848;2023-04-07T03:55:11;98553.28;;;2.58;78.48
62436;BME280;48480;50.252;18.848;2023-04-07T03:57:36;98554.18;;;2.60;78.42
62436;BME280;48480;50.252;18.848;2023-04-07T04:00:04;98556.46;;;2.60;78.41
62436;BME280;48480;50.252;18.848;2023-04-07T04:02:29;98555.44;;;2.57;78.32
62436;BME280;48480;50.252;18.848;2023-04-07T04:04:55;98559.89;;;2.58;78.54
62436;BME280;48480;50.252;18.848;2023-04-07T04:07:20;98566.52;;;2.58;78.58
62436;BME280;48480;50.252;18.848;2023-04-07T04:09:46;98570.11;;;2.56;78.53
62436;BME280;48480;50.252;18.848;2023-04-07T04:12:12;98568.73;;;2.54;78.61
62436;BME280;48480;50.252;18.848;2023-04-07T04:14:38;98566.72;;;2.54;78.83
62436;BME280;48480;50.252;18.848;2023-04-07T04:17:03;98562.21;;;2.57;78.94
62436;BME280;48480;50.252;18.848;2023-04-07T04:19:29;98562.39;;;2.59;79.00
62436;BME280;48480;50.252;18.848;2023-04-07T04:21:54;98564.15;;;2.60;78.77
62436;BME280;48480;50.252;18.848;2023-04-07T04:24:20;98554.75;;;2.56;78.76
62436;BME280;48480;50.252;18.848;2023-04-07T04:26:45;98567.10;;;2.60;78.77
62436;BME280;48480;50.252;18.848;2023-04-07T04:29:11;98567.58;;;2.60;78.77
62436;BME280;48480;50.252;18.848;2023-04-07T04:31:37;98568.04;;;2.55;78.69
62436;BME280;48480;50.252;18.848;2023-04-07T04:34:02;98554.59;;;2.40;78.66
62436;BME280;48480;50.252;18.848;2023-04-07T04:36:28;98570.15;;;2.50;78.94
62436;BME280;48480;50.252;18.848;2023-04-07T04:38:53;98575.14;;;2.52;79.11
62436;BME280;48480;50.252;18.848;2023-04-07T04:41:19;98573.76;;;2.55;79.16
62436;BME280;48480;50.252;18.848;2023-04-07T04:43:44;98572.77;;;2.58;79.09
62436;BME280;48480;50.252;18.848;2023-04-07T04:46:10;98574.75;;;2.62;79.07
62436;BME280;48480;50.252;18.848;2023-04-07T04:48:35;98571.30;;;2.63;78.93
62436;BME280;48480;50.252;18.848;2023-04-07T04:51:01;98568.49;;;2.64;78.95
62436;BME280;48480;50.252;18.848;2023-04-07T04:53:26;98568.23;;;2.65;78.94
62436;BME280;48480;50.252;18.848;2023-04-07T04:55:51;98571.11;;;2.68;78.87
62436;BME280;48480;50.252;18.848;2023-04-07T04:58:19;98569.93;;;2.66;78.65
62436;BME280;48480;50.252;18.848;2023-04-07T05:00:45;98573.63;;;2.64;78.78
62436;BME280;48480;50.252;18.848;2023-04-07T05:03:10;98571.30;;;2.64;79.05
62436;BME280;48480;50.252;18.848;2023-04-07T05:05:36;98577.73;;;2.68;78.92
62436;BME280;48480;50.252;18.848;2023-04-07T05:08:01;98579.59;;;2.70;78.75
62436;BME280;48480;50.252;18.848;2023-04-07T05:10:27;98579.69;;;2.71;78.82
62436;BME280;48480;50.252;18.848;2023-04-07T05:12:52;98579.86;;;2.72;78.58
62436;BME280;48480;50.252;18.848;2023-04-07T05:15:19;98584.47;;;2.73;78.69
62436;BME280;48480;50.252;18.848;2023-04-07T05:17:44;98588.08;;;2.75;78.79
62436;BME280;48480;50.252;18.848;2023-04-07T05:20:15;98587.82;;;2.78;78.81
62436;BME280;48480;50.252;18.848;2023-04-07T05:22:40;98585.39;;;2.80;78.73
62436;BME280;48480;50.252;18.848;2023-04-07T05:25:06;98585.08;;;2.82;78.68
62436;BME280;48480;50.252;18.848;2023-04-07T05:27:32;98582.65;;;2.85;78.52
62436;BME280;48480;50.252;18.848;2023-04-07T05:29:57;98580.85;;;2.85;78.56
62436;BME280;48480;50.252;18.848;2023-04-07T05:32:23;98582.44;;;2.86;78.40
62436;BME280;48480;50.252;18.848;2023-04-07T05:34:49;98586.80;;;2.88;78.30
62436;BME280;48480;50.252;18.848;2023-04-07T05:37:14;98583.65;;;2.85;78.10
62436;BME280;48480;50.252;18.848;2023-04-07T05:39:40;98577.25;;;2.83;78.26
62436;BME280;48480;50.252;18.848;2023-04-07T05:42:06;98577.35;;;2.84;78.47
62436;BME280;48480;50.252;18.848;2023-04-07T05:44:32;98566.05;;;2.78;78.23
62436;BME280;48480;50.252;18.848;2023-04-07T05:46:57;98572.84;;;2.85;78.37
62436;BME280;48480;50.252;18.848;2023-04-07T05:49:23;98575.27;;;2.85;78.28
62436;BME280;48480;50.252;18.848;2023-04-07T05:51:49;98577.25;;;2.88;78.22
62436;BME280;48480;50.252;18.848;2023-04-07T05:54:14;98577.99;;;2.88;78.27
62436;BME280;48480;50.252;18.848;2023-04-07T05:56:40;98576.98;;;2.88;78.32
62436;BME280;48480;50.252;18.848;2023-04-07T05:59:06;98579.73;;;2.90;78.31
62436;BME280;48480;50.252;18.848;2023-04-07T06:01:31;98582.49;;;2.89;78.20
62436;BME280;48480;50.252;18.848;2023-04-07T06:03:57;98587.05;;;2.88;78.32
62436;BME280;48480;50.252;18.848;2023-04-07T06:06:23;98584.40;;;2.89;78.40
62436;BME280;48480;50.252;18.848;2023-04-07T06:08:49;98583.25;;;2.90;78.07
62436;BME280;48480;50.252;18.848;2023-04-07T06:11:15;98590.83;;;2.90;78.03
62436;BME280;48480;50.252;18.848;2023-04-07T06:13:40;98592.15;;;2.91;78.03
62436;BME280;48480;50.252;18.848;2023-04-07T06:16:06;98591.63;;;2.92;78.15
62436;BME280;48480;50.252;18.848;2023-04-07T06:18:31;98590.30;;;2.95;78.17
62436;BME280;48480;50.252;18.848;2023-04-07T06:20:56;98590.73;;;2.97;78.13
62436;BME280;48480;50.252;18.848;2023-04-07T06:23:22;98589.46;;;3.00;78.25
62436;BME280;48480;50.252;18.848;2023-04-07T06:25:47;98583.21;;;3.02;77.95
62436;BME280;48480;50.252;18.848;2023-04-07T06:28:16;98582.21;;;3.04;78.10
62436;BME280;48480;50.252;18.848;2023-04-07T06:30:42;98580.25;;;3.05;78.14
62436;BME280;48480;50.252;18.848;2023-04-07T06:33:07;98579.83;;;3.08;78.13
62436;BME280;48480;50.252;18.848;2023-04-07T06:35:33;98575.44;;;3.09;78.09
62436;BME280;48480;50.252;18.848;2023-04-07T06:37:58;98577.08;;;3.10;77.78
62436;BME280;48480;50.252;18.848;2023-04-07T06:40:24;98579.63;;;3.11;77.75
62436;BME280;48480;50.252;18.848;2023-04-07T06:42:49;98582.38;;;3.11;77.64
62436;BME280;48480;50.252;18.848;2023-04-07T06:45:15;98584.08;;;3.10;77.82
62436;BME280;48480;50.252;18.848;2023-04-07T06:47:41;98582.38;;;3.08;77.92
62436;BME280;48480;50.252;18.848;2023-04-07T06:50:07;98576.23;;;3.08;78.01
62436;BME280;48480;50.252;18.848;2023-04-07T06:52:33;98581.80;;;3.13;77.94
62436;BME280;48480;50.252;18.848;2023-04-07T06:54:59;98578.08;;;3.14;77.87
62436;BME280;48480;50.252;18.848;2023-04-07T06:57:28;98576.62;;;3.15;77.89
62436;BME280;48480;50.252;18.848;2023-04-07T06:59:55;98576.40;;;3.18;77.95
62436;BME280;48480;50.252;18.848;2023-04-07T07:02:20;98579.95;;;3.18;77.80
62436;BME280;48480;50.252;18.848;2023-04-07T07:04:46;98582.59;;;3.11;77.58
62436;BME280;48480;50.252;18.848;2023-04-07T07:07:12;98586.72;;;3.06;77.75
62436;BME280;48480;50.252;18.848;2023-04-07T07:09:37;98589.90;;;3.04;77.90
62436;BME280;48480;50.252;18.848;2023-04-07T07:12:06;98594.83;;;3.05;78.01
62436;BME280;48480;50.252;18.848;2023-04-07T07:14:31;98596.46;;;3.00;77.91
62436;BME280;48480;50.252;18.848;2023-04-07T07:16:57;98595.62;;;2.98;78.19
62436;BME280;48480;50.252;18.848;2023-04-07T07:19:22;98595.03;;;3.00;78.29
62436;BME280;48480;50.252;18.848;2023-04-07T07:21:47;98598.53;;;3.03;78.73
62436;BME280;48480;50.252;18.848;2023-04-07T07:24:13;98601.00;;;3.13;78.75
62436;BME280;48480;50.252;18.848;2023-04-07T07:26:39;98598.14;;;3.18;78.49
62436;BME280;48480;50.252;18.848;2023-04-07T07:29:14;98600.85;;;3.25;78.44
62436;BME280;48480;50.252;18.848;2023-04-07T07:31:39;98603.67;;;3.28;78.37
62436;BME280;48480;50.252;18.848;2023-04-07T07:34:05;98602.30;;;3.33;78.32
62436;BME280;48480;50.252;18.848;2023-04-07T07:36:31;98599.75;;;3.36;78.33
62436;BME280;48480;50.252;18.848;2023-04-07T07:38:56;98603.85;;;3.41;78.37
62436;BME280;48480;50.252;18.848;2023-04-07T07:41:23;98604.95;;;3.45;78.32
62436;BME280;48480;50.252;18.848;2023-04-07T07:43:49;98608.20;;;3.47;78.18
62436;BME280;48480;50.252;18.848;2023-04-07T07:46:15;98611.86;;;3.50;78.18
62436;BME280;48480;50.252;18.848;2023-04-07T07:48:40;98614.94;;;3.52;78.03
62436;BME280;48480;50.252;18.848;2023-04-07T07:51:06;98614.08;;;3.53;78.15
62436;BME280;48480;50.252;18.848;2023-04-07T07:53:31;98612.75;;;3.55;78.12
62436;BME280;48480;50.252;18.848;2023-04-07T07:55:58;98618.38;;;3.51;77.58
62436;BME280;48480;50.252;18.848;2023-04-07T07:58:27;98625.05;;;3.47;77.78
62436;BME280;48480;50.252;18.848;2023-04-07T08:00:52;98621.83;;;3.44;77.66
62436;BME280;48480;50.252;18.848;2023-04-07T08:03:18;98624.84;;;3.42;77.59
62436;BME280;48480;50.252;18.848;2023-04-07T08:05:48;98620.16;;;3.39;77.57
62436;BME280;48480;50.252;18.848;2023-04-07T08:08:13;98624.61;;;3.34;77.62
62436;BME280;48480;50.252;18.848;2023-04-07T08:10:42;98629.49;;;3.33;78.11
62436;BME280;48480;50.252;18.848;2023-04-07T08:13:08;98635.97;;;3.35;78.22
62436;BME280;48480;50.252;18.848;2023-04-07T08:15:33;98628.27;;;3.38;78.20
62436;BME280;48480;50.252;18.848;2023-04-07T08:17:59;98615.50;;;3.36;78.15
62436;BME280;48480;50.252;18.848;2023-04-07T08:20:25;98614.38;;;3.34;78.50
62436;BME280;48480;50.252;18.848;2023-04-07T08:22:51;98614.16;;;3.31;78.40
62436;BME280;48480;50.252;18.848;2023-04-07T08:25:20;98614.17;;;3.36;78.41
62436;BME280;48480;50.252;18.848;2023-04-07T08:27:45;98593.91;;;3.39;78.27
62436;BME280;48480;50.252;18.848;2023-04-07T08:30:11;98575.58;;;3.39;78.39
62436;BME280;48480;50.252;18.848;2023-04-07T08:32:40;98591.16;;;3.57;78.27
62436;BME280;48480;50.252;18.848;2023-04-07T08:35:05;98585.91;;;3.65;78.28
62436;BME280;48480;50.252;18.848;2023-04-07T08:37:32;98579.59;;;3.72;78.20
62436;BME280;48480;50.252;18.848;2023-04-07T08:39:58;98584.48;;;3.73;77.91
62436;BME280;48480;50.252;18.848;2023-04-07T08:42:27;98594.28;;;3.72;77.95
62436;BME280;48480;50.252;18.848;2023-04-07T08:45:03;98600.50;;;3.75;77.92
62436;BME280;48480;50.252;18.848;2023-04-07T08:47:30;98604.36;;;3.79;77.77
62436;BME280;48480;50.252;18.848;2023-04-07T08:50:00;98606.42;;;3.82;77.97
62436;BME280;48480;50.252;18.848;2023-04-07T08:52:33;98602.29;;;3.84;77.69
62436;BME280;48480;50.252;18.848;2023-04-07T08:55:02;98608.28;;;3.83;77.39
62436;BME280;48480;50.252;18.848;2023-04-07T08:57:29;98604.36;;;3.74;77.44
62436;BME280;48480;50.252;18.848;2023-04-07T08:59:58;98599.07;;;3.64;77.49
62436;BME280;48480;50.252;18.848;2023-04-07T09:02:37;98597.79;;;3.52;77.88
62436;BME280;48480;50.252;18.848;2023-04-07T09:05:04;98592.86;;;3.41;78.17
62436;BME280;48480;50.252;18.848;2023-04-07T09:07:31;98600.17;;;3.48;78.32
62436;BME280;48480;50.252;18.848;2023-04-07T09:10:00;98598.42;;;3.52;78.23
62436;BME280;48480;50.252;18.848;2023-04-07T09:12:27;98608.67;;;3.54;78.23
62436;BME280;48480;50.252;18.848;2023-04-07T09:14:53;98606.11;;;3.55;78.29
62436;BME280;48480;50.252;18.848;2023-04-07T09:17:19;98601.98;;;3.60;78.33
62436;BME280;48480;50.252;18.848;2023-04-07T09:19:46;98600.81;;;3.65;78.10
62436;BME280;48480;50.252;18.848;2023-04-07T09:22:12;98599.38;;;3.64;78.16
62436;BME280;48480;50.252;18.848;2023-04-07T09:24:40;98600.29;;;3.64;78.35
62436;BME280;48480;50.252;18.848;2023-04-07T09:27:17;98599.80;;;3.68;78.20
62436;BME280;48480;50.252;18.848;2023-04-07T09:29:45;98593.64;;;3.68;78.04
62436;BME280;48480;50.252;18.848;2023-04-07T09:32:11;98591.05;;;3.71;78.09
62436;BME280;48480;50.252;18.848;2023-04-07T09:34:38;98588.34;;;3.72;77.86
62436;BME280;48480;50.252;18.848;2023-04-07T09:37:05;98583.03;;;3.69;78.21
62436;BME280;48480;50.252;18.848;2023-04-07T09:39:31;98578.16;;;3.76;78.37
62436;BME280;48480;50.252;18.848;2023-04-07T09:41:57;98581.77;;;3.79;78.25
62436;BME280;48480;50.252;18.848;2023-04-07T09:44:24;98580.38;;;3.85;78.25
62436;BME280;48480;50.252;18.848;2023-04-07T09:46:52;98580.95;;;3.86;78.24
62436;BME280;48480;50.252;18.848;2023-04-07T09:49:19;98585.88;;;3.94;78.22
62436;BME280;48480;50.252;18.848;2023-04-07T09:52:02;98587.95;;;3.93;77.91
62436;BME280;48480;50.252;18.848;2023-04-07T09:54:36;98587.05;;;3.91;77.90
62436;BME280;48480;50.252;18.848;2023-04-07T09:57:07;98588.73;;;3.92;77.90
62436;BME280;48480;50.252;18.848;2023-04-07T09:59:36;98587.83;;;3.94;78.01
62436;BME280;48480;50.252;18.848;2023-04-07T10:02:03;98590.27;;;3.96;77.98
62436;BME280;48480;50.252;18.848;2023-04-07T10:04:29;98588.58;;;3.97;77.84
62436;BME280;48480;50.252;18.848;2023-04-07T10:06:56;98585.29;;;3.99;77.68
62436;BME280;48480;50.252;18.848;2023-04-07T10:09:23;98581.73;;;3.97;77.60
62436;BME280;48480;50.252;18.848;2023-04-07T10:11:50;98582.11;;;3.91;77.53
62436;BME280;48480;50.252;18.848;2023-04-07T10:14:19;98580.00;;;3.82;77.52
62436;BME280;48480;50.252;18.848;2023-04-07T10:16:50;98578.09;;;3.81;78.09
62436;BME280;48480;50.252;18.848;2023-04-07T10:19:18;98579.78;;;3.82;78.06
62436;BME280;48480;50.252;18.848;2023-04-07T10:21:44;98577.08;;;3.80;78.04
62436;BME280;48480;50.252;18.848;2023-04-07T10:27:16;98585.19;;;3.86;78.70
62436;BME280;48480;50.252;18.848;2023-04-07T10:29:47;98581.73;;;3.88;78.54
62436;BME280;48480;50.252;18.848;2023-04-07T10:32:14;98588.20;;;3.94;78.64
62436;BME280;48480;50.252;18.848;2023-04-07T10:37:24;98593.30;;;3.99;78.74
62436;BME280;48480;50.252;18.848;2023-04-07T10:42:55;98581.45;;;3.98;78.63
62436;BME280;48480;50.252;18.848;2023-04-07T10:48:28;98579.52;;;4.06;78.74
62436;BME280;48480;50.252;18.848;2023-04-07T10:53:28;98581.48;;;4.11;79.01
62436;BME280;48480;50.252;18.848;2023-04-07T10:55:54;98583.33;;;4.13;78.90
62436;BME280;48480;50.252;18.848;2023-04-07T10:58:32;98570.58;;;3.98;78.91
62436;BME280;48480;50.252;18.848;2023-04-07T11:03:36;98589.27;;;3.94;78.94
62436;BME280;48480;50.252;18.848;2023-04-07T11:06:06;98585.92;;;3.93;79.51
62436;BME280;48480;50.252;18.848;2023-04-07T11:08:42;98583.80;;;3.97;79.67
62436;BME280;48480;50.252;18.848;2023-04-07T11:11:15;98588.36;;;4.00;79.56
62436;BME280;48480;50.252;18.848;2023-04-07T11:13:45;98594.89;;;4.00;79.45
62436;BME280;48480;50.252;18.848;2023-04-07T11:16:13;98592.00;;;4.04;79.68
62436;BME280;48480;50.252;18.848;2023-04-07T11:19:06;98586.98;;;4.16;79.62
62436;BME280;48480;50.252;18.848;2023-04-07T11:21:32;98578.94;;;4.10;79.12
62436;BME280;48480;50.252;18.848;2023-04-07T11:23:58;98578.86;;;4.01;79.49
62436;BME280;48480;50.252;18.848;2023-04-07T11:26:23;98572.11;;;4.02;79.76
62436;BME280;48480;50.252;18.848;2023-04-07T11:28:58;98573.69;;;4.05;79.79
62436;BME280;48480;50.252;18.848;2023-04-07T11:31:27;98578.33;;;4.01;79.62
62436;BME280;48480;50.252;18.848;2023-04-07T11:33:58;98577.36;;;3.99;80.01
62436;BME280;48480;50.252;18.848;2023-04-07T11:36:31;98569.98;;;4.02;79.72
62436;BME280;48480;50.252;18.848;2023-04-07T11:38:58;98566.16;;;4.01;79.80
62436;BME280;48480;50.252;18.848;2023-04-07T11:41:30;98568.70;;;4.06;79.94
62436;BME280;48480;50.252;18.848;2023-04-07T11:44:10;98570.55;;;4.10;80.13
62436;BME280;48480;50.252;18.848;2023-04-07T11:46:53;98572.40;;;4.11;80.00
62436;BME280;48480;50.252;18.848;2023-04-07T11:49:28;98574.05;;;4.08;80.07
62436;BME280;48480;50.252;18.848;2023-04-07T11:52:04;98572.54;;;4.05;80.23
62436;BME280;48480;50.252;18.848;2023-04-07T11:54:44;98573.20;;;4.11;80.50
62436;BME280;48480;50.252;18.848;2023-04-07T11:57:26;98550.66;;;4.04;80.50
62436;BME280;48480;50.252;18.848;2023-04-07T12:00:11;98565.20;;;4.21;80.52
62436;BME280;48480;50.252;18.848;2023-04-07T12:02:43;98565.50;;;4.27;80.26
62436;BME280;48480;50.252;18.848;2023-04-07T12:05:09;98564.17;;;4.31;79.97
62436;BME280;48480;50.252;18.848;2023-04-07T12:07:36;98565.17;;;4.34;79.94
62436;BME280;48480;50.252;18.848;2023-04-07T12:10:20;98560.64;;;4.37;79.99
62436;BME280;48480;50.252;18.848;2023-04-07T12:12:47;98558.81;;;4.40;79.56
62436;BME280;48480;50.252;18.848;2023-04-07T12:15:17;98563.45;;;4.39;79.60
62436;BME280;48480;50.252;18.848;2023-04-07T12:17:44;98557.52;;;4.35;79.66
62436;BME280;48480;50.252;18.848;2023-04-07T12:20:14;98557.41;;;4.32;79.41
62436;BME280;48480;50.252;18.848;2023-04-07T12:22:42;98556.80;;;4.24;79.52
62436;BME280;48480;50.252;18.848;2023-04-07T12:25:15;98557.87;;;4.21;79.89
62436;BME280;48480;50.252;18.848;2023-04-07T12:27:43;98558.30;;;4.21;79.90
62436;BME280;48480;50.252;18.848;2023-04-07T12:30:09;98556.50;;;4.20;80.00
62436;BME280;48480;50.252;18.848;2023-04-07T12:32:40;98530.66;;;3.96;79.95
62436;BME280;48480;50.252;18.848;2023-04-07T12:35:09;98558.61;;;4.07;80.00
62436;BME280;48480;50.252;18.848;2023-04-07T12:37:41;98565.73;;;4.04;80.30
62436;BME280;48480;50.252;18.848;2023-04-07T12:40:06;98576.83;;;4.04;80.46
62436;BME280;48480;50.252;18.848;2023-04-07T12:42:32;98577.69;;;4.03;80.33
62436;BME280;48480;50.252;18.848;2023-04-07T12:44:58;98572.75;;;4.03;80.36
62436;BME280;48480;50.252;18.848;2023-04-07T12:47:23;98565.84;;;4.03;80.40
62436;BME280;48480;50.252;18.848;2023-04-07T12:49:49;98571.67;;;4.08;80.43
62436;BME280;48480;50.252;18.848;2023-04-07T12:52:17;98570.96;;;4.11;80.52
62436;BME280;48480;50.252;18.848;2023-04-07T12:54:43;98575.38;;;4.11;80.62
62436;BME280;48480;50.252;18.848;2023-04-07T12:57:09;98576.23;;;4.13;80.64
62436;BME280;48480;50.252;18.848;2023-04-07T12:59:37;98573.49;;;4.19;80.77
62436;BME280;48480;50.252;18.848;2023-04-07T13:02:03;98566.36;;;4.25;81.19
62436;BME280;48480;50.252;18.848;2023-04-07T13:04:29;98564.48;;;4.30;80.89
62436;BME280;48480;50.252;18.848;2023-04-07T13:06:55;98564.95;;;4.34;81.09
62436;BME280;48480;50.252;18.848;2023-04-07T13:09:21;98563.23;;;4.40;81.51
62436;BME280;48480;50.252;18.848;2023-04-07T13:11:46;98564.20;;;4.47;81.10
62436;BME280;48480;50.252;18.848;2023-04-07T13:14:12;98557.92;;;4.51;81.35
62436;BME280;48480;50.252;18.848;2023-04-07T13:16:37;98560.45;;;4.56;81.26
62436;BME280;48480;50.252;18.848;2023-04-07T13:19:03;98560.52;;;4.60;81.43
62436;BME280;48480;50.252;18.848;2023-04-07T13:21:29;98560.77;;;4.68;81.71
62436;BME280;48480;50.252;18.848;2023-04-07T13:23:54;98560.31;;;4.73;81.10